Time;durP1;ratioP1;P1;durP2;ratioP2;P2;SDS_P1;SDS_P2;PMS_P1;PMS_P2;Temp;Humidity;BMP_temperature;BMP_pressure;BME280_temperature;BME280_humidity;BME280_pressure;Samples;Min_cycle;Max_cycle;Signal;HPM_P1;HPM_P2
2024/01/12 00:02:33;;;;;;;30.50;10.63;;;-3.00;99.90;;;;;;4399283;28;658630;-73
2024/01/12 00:05:20;;;;;;;44.23;16.60;;;-3.00;99.90;;;;;;4411962;28;660721;-73
2024/01/12 00:08:08;;;;;;;47.13;16.60;;;-3.00;99.90;;;;;;4391684;28;658492;-73
2024/01/12 00:10:55;;;;;;;36.90;14.27;;;-3.00;99.90;;;;;;4417315;28;659979;-73
2024/01/12 00:13:44;;;;;;;43.13;14.23;;;-2.90;99.90;;;;;;4407385;28;659014;-73
2024/01/12 00:16:31;;;;;;;40.37;15.47;;;-2.80;99.90;;;;;;4420168;28;659186;-73
2024/01/12 00:19:19;;;;;;;45.87;14.97;;;-2.80;99.90;;;;;;4417695;28;658528;-72
2024/01/12 00:22:07;;;;;;;45.53;16.80;;;-2.80;99.90;;;;;;4439180;28;658408;-74
2024/01/12 00:24:54;;;;;;;38.90;14.67;;;-2.80;99.90;;;;;;4430371;28;658585;-73
2024/01/12 00:27:41;;;;;;;42.17;13.83;;;-2.80;99.90;;;;;;4438353;28;659592;-73
2024/01/12 00:30:29;;;;;;;43.87;16.27;;;-2.70;99.90;;;;;;4418251;28;659184;-73
2024/01/12 00:33:17;;;;;;;44.57;16.33;;;-2.80;99.90;;;;;;4442895;28;658933;-73
2024/01/12 00:36:05;;;;;;;45.58;16.05;;;-2.80;99.90;;;;;;4421753;28;658907;-73
2024/01/12 00:38:53;;;;;;;40.28;16.67;;;-2.80;99.90;;;;;;4424494;28;658525;-73
2024/01/12 00:41:40;;;;;;;38.93;15.67;;;-2.80;99.90;;;;;;4422970;28;660076;-74
2024/01/12 00:44:27;;;;;;;36.90;13.57;;;-2.70;99.90;;;;;;4435007;28;658756;-73
2024/01/12 00:47:16;;;;;;;38.67;14.27;;;-2.60;99.90;;;;;;4428155;28;660136;-74
2024/01/12 00:50:04;;;;;;;29.63;11.07;;;-2.70;99.90;;;;;;4412817;28;658878;-73
2024/01/12 00:52:51;;;;;;;38.23;13.93;;;-2.70;99.90;;;;;;4433836;28;659035;-73
2024/01/12 00:55:38;;;;;;;27.43;9.57;;;-2.60;99.90;;;;;;4417383;28;658627;-74
2024/01/12 00:58:25;;;;;;;35.83;14.33;;;-2.60;99.90;;;;;;4444954;28;659097;-73
2024/01/12 01:01:13;;;;;;;35.30;14.57;;;-2.60;99.90;;;;;;4422521;28;658950;-73
2024/01/12 01:04:02;;;;;;;35.60;14.47;;;-2.60;99.90;;;;;;4422815;28;659973;-73
2024/01/12 01:06:49;;;;;;;33.40;12.00;;;-2.50;99.90;;;;;;4417237;28;659850;-73
2024/01/12 01:09:36;;;;;;;36.00;12.53;;;-2.50;99.90;;;;;;4435935;28;659019;-73
2024/01/12 01:12:23;;;;;;;37.00;14.10;;;-2.50;99.90;;;;;;4416846;28;658745;-73
2024/01/12 01:15:13;;;;;;;17.53;6.80;;;-2.60;99.90;;;;;;4442908;28;659942;-74
2024/01/12 01:18:00;;;;;;;34.33;14.83;;;-2.50;99.90;;;;;;4420227;28;658781;-73
2024/01/12 01:20:49;;;;;;;36.00;13.43;;;-2.70;99.90;;;;;;4423069;28;659079;-73
2024/01/12 01:23:36;;;;;;;39.10;14.80;;;-2.60;99.90;;;;;;4438256;28;659439;-74
2024/01/12 01:26:23;;;;;;;31.63;10.70;;;-2.80;99.90;;;;;;4419601;28;658737;-73
2024/01/12 01:29:10;;;;;;;37.07;14.23;;;-2.70;99.90;;;;;;4441960;28;659652;-73
2024/01/12 01:31:57;;;;;;;29.45;10.30;;;-2.60;99.90;;;;;;4423216;28;658667;-73
2024/01/12 01:34:45;;;;;;;39.83;14.70;;;-2.70;99.90;;;;;;4440363;28;659262;-73
2024/01/12 01:37:34;;;;;;;42.63;17.40;;;-2.70;99.90;;;;;;4431824;28;658780;-73
2024/01/12 01:40:21;;;;;;;43.90;16.10;;;-2.70;99.90;;;;;;4440217;28;658807;-74
2024/01/12 01:43:08;;;;;;;35.80;15.13;;;-2.70;99.90;;;;;;4418059;28;659827;-73
2024/01/12 01:45:56;;;;;;;45.03;16.67;;;-2.80;99.90;;;;;;4437982;28;659671;-73
2024/01/12 01:48:43;;;;;;;36.50;13.63;;;-2.70;99.90;;;;;;4418725;28;658764;-73
2024/01/12 01:51:30;;;;;;;37.30;13.53;;;-2.60;99.90;;;;;;4440425;28;660250;-73
2024/01/12 01:54:19;;;;;;;35.40;11.27;;;-2.70;99.90;;;;;;4432499;28;658373;-73
2024/01/12 01:57:07;;;;;;;39.37;15.47;;;-2.80;99.90;;;;;;4441497;28;658183;-73
2024/01/12 01:59:54;;;;;;;37.00;15.23;;;-2.80;99.90;;;;;;4421644;28;658732;-73
2024/01/12 02:02:41;;;;;;;43.00;15.93;;;-2.80;99.90;;;;;;4428638;28;659994;-73
2024/01/12 02:05:29;;;;;;;42.13;16.25;;;-2.80;99.90;;;;;;4406610;28;658969;-73
2024/01/12 02:08:16;;;;;;;48.83;17.67;;;-2.80;99.90;;;;;;4413202;28;659496;-73
2024/01/12 02:11:05;;;;;;;36.77;13.00;;;-2.90;99.90;;;;;;4413527;28;658450;-73
2024/01/12 02:13:52;;;;;;;43.97;16.93;;;-2.70;99.90;;;;;;4428508;28;658761;-73
2024/01/12 02:16:40;;;;;;;42.97;16.80;;;-2.80;99.90;;;;;;4440128;28;658558;-73
2024/01/12 02:19:27;;;;;;;45.57;16.67;;;-2.80;99.90;;;;;;4419837;28;658362;-74
2024/01/12 02:22:15;;;;;;;51.47;17.83;;;-2.80;99.90;;;;;;4401590;28;659005;-73
2024/01/12 02:25:04;;;;;;;44.58;16.65;;;-2.70;99.90;;;;;;4406338;28;658673;-74
2024/01/12 02:27:51;;;;;;;41.47;15.80;;;-2.80;99.90;;;;;;4434017;28;658765;-73
2024/01/12 02:30:38;;;;;;;42.88;15.70;;;-2.80;99.90;;;;;;4418713;28;659216;-73
2024/01/12 02:33:26;;;;;;;41.30;15.83;;;-2.70;99.90;;;;;;4439149;28;660348;-74
2024/01/12 02:36:13;;;;;;;50.23;17.30;;;-2.70;99.90;;;;;;4421967;28;658554;-73
2024/01/12 02:39:02;;;;;;;41.20;15.47;;;-2.70;99.90;;;;;;4436257;28;658701;-74
2024/01/12 02:41:49;;;;;;;44.13;15.67;;;-2.80;99.90;;;;;;4412107;28;659932;-73
2024/01/12 02:44:36;;;;;;;38.70;15.47;;;-2.70;99.90;;;;;;4434362;28;658288;-73
2024/01/12 02:47:23;;;;;;;34.72;14.70;;;-2.70;99.90;;;;;;4414803;28;658381;-73
2024/01/12 02:50:11;;;;;;;38.33;14.97;;;-2.70;99.90;;;;;;4437855;28;659673;-73
2024/01/12 02:52:58;;;;;;;32.97;14.43;;;-2.70;99.90;;;;;;4409362;28;658543;-73
2024/01/12 02:55:47;;;;;;;36.67;16.37;;;-2.70;99.90;;;;;;4440640;28;658187;-74
2024/01/12 02:58:34;;;;;;;37.90;15.40;;;-2.70;99.90;;;;;;4406951;28;659540;-74
2024/01/12 03:01:21;;;;;;;41.93;15.23;;;-2.70;99.90;;;;;;4434667;28;659139;-73
2024/01/12 03:04:08;;;;;;;39.67;17.47;;;-2.70;99.90;;;;;;4416984;28;658700;-73
2024/01/12 03:06:56;;;;;;;31.20;13.17;;;-2.70;99.90;;;;;;4436590;28;658929;-73
2024/01/12 03:09:43;;;;;;;45.57;15.90;;;-2.70;99.90;;;;;;4416075;28;659917;-73
2024/01/12 03:12:32;;;;;;;41.03;17.00;;;-2.70;99.90;;;;;;4434728;28;659131;-73
2024/01/12 03:15:19;;;;;;;35.57;14.13;;;-2.80;99.90;;;;;;4421693;28;659652;-73
2024/01/12 03:18:06;;;;;;;41.30;16.53;;;-2.70;99.90;;;;;;4431598;28;658897;-73
2024/01/12 03:20:53;;;;;;;25.37;10.27;;;-2.70;99.90;;;;;;4413607;28;659200;-73
2024/01/12 03:23:40;;;;;;;47.50;15.65;;;-2.70;99.90;;;;;;4440341;28;659845;-73
2024/01/12 03:26:28;;;;;;;14.97;6.50;;;-2.60;99.90;;;;;;4414962;28;659205;-73
2024/01/12 03:29:18;;;;;;;41.70;17.13;;;-2.60;99.90;;;;;;4435855;28;658239;-73
2024/01/12 03:32:06;;;;;;;45.03;19.03;;;-2.70;99.90;;;;;;4414785;28;659971;-73
2024/01/12 03:34:53;;;;;;;29.57;12.17;;;-2.60;99.90;;;;;;4417733;28;658490;-74
2024/01/12 03:37:40;;;;;;;35.53;14.73;;;-2.60;99.90;;;;;;4434367;28;659174;-73
2024/01/12 03:40:27;;;;;;;33.97;12.27;;;-2.50;99.90;;;;;;4412103;28;658387;-73
2024/01/12 03:43:15;;;;;;;41.53;16.60;;;-2.70;99.90;;;;;;4438789;28;659025;-73
2024/01/12 03:46:04;;;;;;;40.30;17.23;;;-2.70;99.90;;;;;;4445244;28;659084;-73
2024/01/12 03:48:52;;;;;;;12.93;5.17;;;-2.70;99.90;;;;;;4430043;28;658796;-73
2024/01/12 03:51:42;;;;;;;40.60;15.97;;;-2.70;99.90;;;;;;4418557;28;659084;-72
2024/01/12 03:54:29;;;;;;;43.53;17.10;;;-2.70;99.90;;;;;;4421896;28;659269;-73
2024/01/12 03:57:16;;;;;;;15.57;5.70;;;-2.70;99.90;;;;;;4434079;28;658764;-73
2024/01/12 04:00:04;;;;;;;38.85;15.20;;;-2.60;99.90;;;;;;4415637;28;657559;-73
2024/01/12 04:02:53;;;;;;;40.00;16.73;;;-2.60;99.90;;;;;;4439642;28;659612;-73
2024/01/12 04:05:40;;;;;;;43.77;17.43;;;-2.60;99.90;;;;;;4424016;28;659812;-73
2024/01/12 04:08:27;;;;;;;50.50;19.97;;;-2.70;99.90;;;;;;4433210;28;658908;-74
2024/01/12 04:11:22;;;;;;;45.60;17.37;;;-2.70;99.90;;;;;;4444926;28;659632;-73
2024/01/12 04:14:09;;;;;;;36.93;13.87;;;-2.60;99.90;;;;;;4419918;28;658997;-74
2024/01/12 04:16:56;;;;;;;43.70;17.43;;;-2.50;99.90;;;;;;4437103;28;658785;-73
2024/01/12 04:19:44;;;;;;;41.10;15.57;;;-2.60;99.90;;;;;;4424069;28;659823;-73
2024/01/12 04:22:32;;;;;;;31.57;11.77;;;-2.60;99.90;;;;;;4439814;28;659183;-73
2024/01/12 04:25:19;;;;;;;38.30;15.23;;;-2.50;99.90;;;;;;4418057;28;658748;-73
2024/01/12 04:28:06;;;;;;;43.30;16.97;;;-2.60;99.90;;;;;;4442840;28;658275;-73
2024/01/12 04:30:54;;;;;;;47.43;18.70;;;-2.60;99.90;;;;;;4405914;28;658508;-73
2024/01/12 04:33:41;;;;;;;48.67;18.93;;;-2.60;99.90;;;;;;4424857;28;658978;-73
2024/01/12 04:36:30;;;;;;;47.87;18.37;;;-2.60;99.90;;;;;;4409934;28;658944;-73
2024/01/12 04:39:17;;;;;;;51.10;18.60;;;-2.40;99.90;;;;;;4431973;28;658997;-74
2024/01/12 04:42:05;;;;;;;47.60;19.63;;;-2.40;99.90;;;;;;4416507;28;659196;-73
2024/01/12 04:44:52;;;;;;;51.60;19.57;;;-2.50;99.90;;;;;;4429587;28;658895;-73
2024/01/12 04:47:39;;;;;;;46.27;18.00;;;-2.50;99.90;;;;;;4410126;28;659336;-73
2024/01/12 04:50:26;;;;;;;33.93;13.50;;;-2.60;99.90;;;;;;4437324;28;658090;-73
2024/01/12 04:53:15;;;;;;;26.67;11.10;;;-2.60;99.90;;;;;;4416238;28;658848;-73
2024/01/12 04:56:03;;;;;;;45.10;17.37;;;-2.50;99.90;;;;;;4441244;28;658882;-73
2024/01/12 04:58:50;;;;;;;30.30;11.77;;;-2.50;99.90;;;;;;4408984;28;659947;-74
2024/01/12 05:01:37;;;;;;;35.57;14.93;;;-2.50;99.90;;;;;;4430863;28;658577;-73
2024/01/12 05:04:25;;;;;;;39.43;14.63;;;-2.50;99.90;;;;;;4438313;28;659410;-74
2024/01/12 05:07:12;;;;;;;33.13;13.40;;;-2.50;99.90;;;;;;4441881;28;658572;-74
2024/01/12 05:10:00;;;;;;;35.17;13.17;;;-2.40;99.90;;;;;;4418004;28;659212;-73
2024/01/12 05:12:47;;;;;;;38.07;13.40;;;-2.40;99.90;;;;;;4418238;28;658956;-73
2024/01/12 05:15:35;;;;;;;29.30;11.37;;;-2.50;99.90;;;;;;4440512;28;659731;-73
2024/01/12 05:18:22;;;;;;;30.27;11.63;;;-2.50;99.90;;;;;;4425132;28;658627;-73
2024/01/12 05:21:10;;;;;;;27.13;10.90;;;-2.40;99.90;;;;;;4434961;28;659342;-73
2024/01/12 05:23:57;;;;;;;30.20;10.80;;;-2.40;99.90;;;;;;4437712;28;659196;-73
2024/01/12 05:26:46;;;;;;;23.57;10.57;;;-2.40;99.90;;;;;;4441646;28;659280;-74
2024/01/12 05:29:33;;;;;;;26.42;11.50;;;-2.50;99.90;;;;;;4415790;28;658765;-74
2024/01/12 05:32:20;;;;;;;30.87;12.00;;;-2.50;99.90;;;;;;4438401;28;660208;-74
2024/01/12 05:35:08;;;;;;;27.70;11.20;;;-2.60;99.90;;;;;;4415365;28;658710;-73
2024/01/12 05:37:55;;;;;;;23.57;10.43;;;-2.60;99.90;;;;;;4437246;28;659367;-74
2024/01/12 05:40:43;;;;;;;36.10;11.63;;;-2.60;99.90;;;;;;4419066;28;659027;-73
2024/01/12 05:43:31;;;;;;;28.50;10.43;;;-2.60;99.90;;;;;;4437639;28;660203;-75
2024/01/12 05:46:19;;;;;;;24.50;10.13;;;-2.70;99.90;;;;;;4421336;28;658766;-73
2024/01/12 05:49:06;;;;;;;27.40;10.60;;;-2.70;99.90;;;;;;4440784;28;659025;-73
2024/01/12 05:51:53;;;;;;;21.53;8.53;;;-2.70;99.90;;;;;;4421353;28;658742;-73
2024/01/12 05:54:40;;;;;;;18.50;7.63;;;-2.80;99.90;;;;;;4439597;28;658439;-73
2024/01/12 05:57:28;;;;;;;23.07;9.00;;;-2.80;99.90;;;;;;4419782;28;657509;-74
2024/01/12 06:00:17;;;;;;;22.57;7.33;;;-2.90;99.90;;;;;;4443805;28;658718;-74
2024/01/12 06:03:05;;;;;;;23.63;7.97;;;-3.10;99.90;;;;;;4414706;28;659082;-74
2024/01/12 06:05:52;;;;;;;18.27;7.68;;;-3.20;99.90;;;;;;4426114;28;657467;-73
2024/01/12 06:08:40;;;;;;;17.73;6.17;;;-3.30;99.90;;;;;;4438874;28;658503;-74
2024/01/12 06:11:27;;;;;;;18.50;6.70;;;-3.20;99.90;;;;;;4438939;28;657647;-73
2024/01/12 06:14:15;;;;;;;15.80;6.77;;;-3.40;99.90;;;;;;4442432;28;658455;-73
2024/01/12 06:17:04;;;;;;;10.37;3.43;;;-3.40;99.90;;;;;;4421843;28;658074;-72
2024/01/12 06:19:52;;;;;;;15.03;5.50;;;-3.40;99.90;;;;;;4447620;28;658124;-74
2024/01/12 06:22:39;;;;;;;20.33;6.47;;;-3.40;99.90;;;;;;4419852;28;657623;-73
2024/01/12 06:25:27;;;;;;;16.63;5.63;;;-3.40;99.90;;;;;;4439131;28;658240;-71
2024/01/12 06:28:14;;;;;;;14.27;4.77;;;-3.40;99.90;;;;;;4420854;28;659325;-74
2024/01/12 06:31:01;;;;;;;16.63;6.33;;;-3.30;99.90;;;;;;4441605;28;658076;-73
2024/01/12 06:33:50;;;;;;;18.77;6.00;;;-3.40;99.90;;;;;;4423885;28;657457;-73
2024/01/12 06:36:43;;;;;;;22.10;6.40;;;-3.40;99.90;;;;;;4434801;28;657868;-73
2024/01/12 06:39:30;;;;;;;13.70;5.80;;;-3.40;99.90;;;;;;4417804;28;659005;-72
2024/01/12 06:42:17;;;;;;;18.65;6.53;;;-3.30;99.90;;;;;;4421318;28;658190;-73
2024/01/12 06:45:07;;;;;;;16.53;6.70;;;-3.30;99.90;;;;;;4439743;28;658680;-73
2024/01/12 06:47:54;;;;;;;13.80;5.93;;;-3.30;99.90;;;;;;4416879;28;658537;-73
2024/01/12 06:50:43;;;;;;;12.37;5.70;;;-3.30;99.90;;;;;;4443098;28;657475;-74
2024/01/12 06:53:30;;;;;;;15.37;4.27;;;-3.30;99.90;;;;;;4419300;28;658949;-73
2024/01/12 06:56:20;;;;;;;14.67;5.27;;;-3.30;99.90;;;;;;4431346;28;657757;-73
2024/01/12 06:59:08;;;;;;;9.07;2.83;;;-3.20;99.90;;;;;;4421831;28;657714;-73
2024/01/12 07:01:55;;;;;;;9.30;3.57;;;-3.30;99.90;;;;;;4442882;28;657971;-73
2024/01/12 07:04:42;;;;;;;14.43;5.40;;;-3.30;99.90;;;;;;4441095;28;656592;-71
2024/01/12 07:07:31;;;;;;;11.50;5.03;;;-3.30;99.90;;;;;;4443427;28;658224;-73
2024/01/12 07:10:18;;;;;;;6.00;2.80;;;-3.20;99.90;;;;;;4419961;28;658338;-73
2024/01/12 07:13:05;;;;;;;18.60;6.07;;;-3.20;99.90;;;;;;4439966;28;657324;-73
2024/01/12 07:15:53;;;;;;;9.17;3.60;;;-3.00;99.90;;;;;;4420248;28;657462;-72
2024/01/12 07:18:40;;;;;;;15.27;5.83;;;-2.80;99.90;;;;;;4438367;28;657906;-73
2024/01/12 07:21:27;;;;;;;17.90;5.60;;;-2.80;99.90;;;;;;4432828;28;657875;-73
2024/01/12 07:24:16;;;;;;;6.17;2.60;;;-2.70;99.90;;;;;;4449959;28;658328;-73
2024/01/12 07:27:03;;;;;;;13.20;4.60;;;-2.70;99.90;;;;;;4425910;28;656879;-73
2024/01/12 07:29:51;;;;;;;10.27;4.80;;;-2.80;99.90;;;;;;4443351;28;658352;-74
2024/01/12 07:32:38;;;;;;;10.33;4.90;;;-2.60;99.90;;;;;;4418502;28;657505;-73
2024/01/12 07:35:25;;;;;;;8.50;4.13;;;-2.50;99.90;;;;;;4443851;28;657350;-72
2024/01/12 07:38:13;;;;;;;8.15;3.10;;;-2.40;99.90;;;;;;4425315;28;657597;-73
2024/01/12 07:41:01;;;;;;;11.00;4.57;;;-2.50;99.90;;;;;;4443835;28;657405;-73
2024/01/12 07:43:48;;;;;;;14.35;5.10;;;-2.60;99.90;;;;;;4423214;28;658045;-73
2024/01/12 07:46:36;;;;;;;10.45;3.85;;;-2.60;99.90;;;;;;4441667;28;658225;-74
2024/01/12 07:49:23;;;;;;;15.32;5.63;;;-2.50;99.90;;;;;;4421318;28;658186;-73
2024/01/12 07:52:11;;;;;;;3.93;2.30;;;-2.50;99.90;;;;;;4437925;28;657898;-73
2024/01/12 07:54:58;;;;;;;15.20;5.97;;;-2.70;99.90;;;;;;4420994;28;657154;-72
2024/01/12 07:57:46;;;;;;;15.03;5.00;;;-2.80;99.90;;;;;;4439456;28;658752;-73
2024/01/12 08:00:33;;;;;;;19.25;6.53;;;-2.80;99.90;;;;;;4427517;28;658164;-73
2024/01/12 08:03:21;;;;;;;16.10;5.50;;;-2.90;99.90;;;;;;4435390;28;658244;-72
2024/01/12 08:06:08;;;;;;;13.57;5.17;;;-2.90;99.90;;;;;;4418446;28;657537;-72
2024/01/12 08:08:55;;;;;;;17.33;4.57;;;-2.90;99.90;;;;;;4439065;28;659148;-73
2024/01/12 08:11:43;;;;;;;3.63;1.97;;;-2.90;99.90;;;;;;4428396;28;657264;-73
2024/01/12 08:14:31;;;;;;;17.90;5.73;;;-3.10;99.90;;;;;;4440012;28;657721;-73
2024/01/12 08:17:18;;;;;;;18.30;6.88;;;-3.30;99.90;;;;;;4427881;28;658185;-72
2024/01/12 08:20:07;;;;;;;15.83;5.17;;;-3.30;99.90;;;;;;4443125;28;659414;-73
2024/01/12 08:22:54;;;;;;;17.47;6.70;;;-3.40;99.90;;;;;;4423177;28;657716;-72
2024/01/12 08:25:41;;;;;;;17.00;5.57;;;-3.40;99.90;;;;;;4441649;28;657995;-73
2024/01/12 08:28:29;;;;;;;17.07;7.23;;;-3.40;99.90;;;;;;4417698;28;657618;-73
2024/01/12 08:31:17;;;;;;;21.33;7.27;;;-3.50;99.90;;;;;;4447771;28;658332;-73
2024/01/12 08:34:05;;;;;;;17.60;7.28;;;-3.20;99.90;;;;;;4429169;28;658228;-73
2024/01/12 08:36:52;;;;;;;18.93;6.90;;;-2.90;99.90;;;;;;4447264;28;657768;-73
2024/01/12 08:39:39;;;;;;;15.20;4.97;;;-2.30;99.90;;;;;;4423496;28;657540;-73
2024/01/12 08:42:27;;;;;;;19.97;7.33;;;-1.80;99.90;;;;;;4449289;28;657485;-73
2024/01/12 08:45:14;;;;;;;15.33;6.60;;;-1.50;99.90;;;;;;4422069;28;658029;-73
2024/01/12 08:48:02;;;;;;;15.90;6.40;;;-1.60;99.90;;;;;;4443642;28;657753;-73
2024/01/12 08:50:50;;;;;;;17.47;6.50;;;-1.40;99.90;;;;;;4422116;28;657858;-73
2024/01/12 08:53:37;;;;;;;13.07;5.27;;;-1.60;99.90;;;;;;4426143;28;657900;-72
2024/01/12 08:56:25;;;;;;;14.13;5.63;;;-2.00;99.90;;;;;;4442071;28;658371;-73
2024/01/12 08:59:12;;;;;;;11.93;5.13;;;-1.90;99.90;;;;;;4441506;28;657470;-72
2024/01/12 09:02:00;;;;;;;15.50;6.27;;;-2.20;99.90;;;;;;4441552;28;658467;-73
2024/01/12 09:04:48;;;;;;;15.57;7.00;;;-2.10;99.90;;;;;;4444743;28;658128;-72
2024/01/12 09:07:35;;;;;;;17.70;6.53;;;-2.20;99.90;;;;;;4421131;28;658276;-72
2024/01/12 09:10:23;;;;;;;17.73;6.97;;;-2.20;99.90;;;;;;4416472;28;657669;-73
2024/01/12 09:13:10;;;;;;;22.30;6.80;;;-2.10;99.90;;;;;;4444971;28;658102;-73
2024/01/12 09:15:57;;;;;;;17.37;6.50;;;-2.20;99.90;;;;;;4441894;28;657810;-72
2024/01/12 09:18:45;;;;;;;20.40;7.57;;;-2.20;99.90;;;;;;4448637;28;657587;-72
2024/01/12 09:21:33;;;;;;;3.53;2.63;;;-2.20;99.90;;;;;;4434374;28;657648;-73
2024/01/12 09:24:20;;;;;;;18.73;8.07;;;-2.20;99.90;;;;;;4427093;28;657169;-73
2024/01/12 09:27:08;;;;;;;19.30;7.47;;;-2.20;99.90;;;;;;4422237;28;657653;-72
2024/01/12 09:29:55;;;;;;;14.40;4.33;;;-1.80;99.90;;;;;;4438623;28;659000;-73
2024/01/12 09:32:42;;;;;;;17.10;7.93;;;-1.50;99.90;;;;;;4440777;28;658048;-73
2024/01/12 09:35:30;;;;;;;18.77;7.67;;;-1.60;99.90;;;;;;4438788;28;657942;-72
2024/01/12 09:38:18;;;;;;;25.30;9.30;;;-0.80;99.90;;;;;;4441051;28;657276;-73
2024/01/12 09:41:05;;;;;;;30.20;8.47;;;-0.60;99.90;;;;;;4417339;28;657374;-73
2024/01/12 09:43:53;;;;;;;33.10;11.13;;;-0.70;99.90;;;;;;4427312;28;657933;-70
2024/01/12 09:46:44;;;;;;;29.13;10.07;;;0.30;99.90;;;;;;4446418;28;660043;-71
2024/01/12 09:49:32;;;;;;;31.37;9.20;;;0.80;99.90;;;;;;4417441;28;657841;-73
2024/01/12 09:52:19;;;;;;;30.77;10.53;;;0.30;99.90;;;;;;4422385;28;657591;-72
2024/01/12 09:55:09;;;;;;;19.53;8.03;;;0.50;99.90;;;;;;4444497;28;657879;-73
2024/01/12 09:57:56;;;;;;;23.77;8.87;;;0.40;99.90;;;;;;4419329;28;656996;-72
2024/01/12 10:00:43;;;;;;;26.13;7.87;;;0.20;99.90;;;;;;4418383;28;656846;-73
2024/01/12 10:03:30;;;;;;;22.47;9.53;;;0.40;99.90;;;;;;4445516;28;656799;-72
2024/01/12 10:06:17;;;;;;;36.70;10.37;;;0.20;99.90;;;;;;4423271;28;657072;-72
2024/01/12 10:09:05;;;;;;;27.50;9.20;;;0.30;99.90;;;;;;4442123;28;657993;-73
2024/01/12 10:11:55;;;;;;;30.83;10.50;;;0.10;99.90;;;;;;4442564;28;657622;-73
2024/01/12 10:14:42;;;;;;;18.20;5.87;;;0.10;99.90;;;;;;4438229;28;657626;-73
2024/01/12 10:17:30;;;;;;;22.67;8.27;;;-0.20;99.90;;;;;;4441403;28;656988;-73
2024/01/12 10:20:18;;;;;;;42.10;10.87;;;0.00;99.90;;;;;;4419033;28;657226;-72
2024/01/12 10:23:05;;;;;;;31.63;10.93;;;-0.30;99.90;;;;;;4434463;28;658921;-73
2024/01/12 10:25:59;;;;;;;24.80;8.87;;;-0.50;99.90;;;;;;4430911;28;658789;-72
2024/01/12 10:28:48;;;;;;;35.17;10.97;;;-0.40;99.90;;;;;;4418992;28;657887;-73
2024/01/12 10:31:39;;;;;;;12.23;4.17;;;-0.80;99.90;;;;;;4409801;28;659316;-73
2024/01/12 10:34:27;;;;;;;36.03;11.40;;;-0.80;99.90;;;;;;4417154;28;657905;-72
2024/01/12 10:37:16;;;;;;;36.47;12.37;;;-0.80;99.90;;;;;;4416355;28;659425;-72
2024/01/12 10:40:06;;;;;;;34.97;10.57;;;-1.00;99.90;;;;;;4412753;28;659269;-73
2024/01/12 10:42:53;;;;;;;28.03;9.60;;;-1.40;99.90;;;;;;4416075;28;658725;-72
2024/01/12 10:45:42;;;;;;;30.50;9.27;;;-1.20;99.90;;;;;;4446835;28;657973;-73
2024/01/12 10:48:29;;;;;;;26.87;8.33;;;-1.20;99.90;;;;;;4413864;28;657885;-72
2024/01/12 10:51:16;;;;;;;27.60;8.67;;;-1.20;99.90;;;;;;4438260;28;657710;-72
2024/01/12 10:54:05;;;;;;;7.43;2.77;;;-1.00;99.90;;;;;;4421467;28;658411;-72
2024/01/12 10:56:52;;;;;;;30.05;9.02;;;-0.90;99.90;;;;;;4419799;28;656770;-72
2024/01/12 10:59:40;;;;;;;21.90;7.60;;;-0.60;99.90;;;;;;4443463;28;658525;-72
2024/01/12 11:02:28;;;;;;;18.23;6.63;;;-0.40;99.90;;;;;;4439910;28;657677;-72
2024/01/12 11:05:15;;;;;;;21.60;6.73;;;-1.00;99.90;;;;;;4417756;28;658123;-73
2024/01/12 11:08:06;;;;;;;16.30;6.60;;;-0.80;99.90;;;;;;4421120;28;657795;-72
2024/01/12 11:10:54;;;;;;;17.17;7.10;;;-0.40;99.90;;;;;;4419306;28;657271;-72
2024/01/12 11:13:41;;;;;;;12.47;5.27;;;-0.90;99.90;;;;;;4438812;28;658973;-72
2024/01/12 11:16:28;;;;;;;16.60;6.30;;;-1.30;99.90;;;;;;4421359;28;657843;-72
2024/01/12 11:19:19;;;;;;;12.77;4.90;;;-1.10;99.90;;;;;;4442920;28;657842;-72
2024/01/12 11:22:07;;;;;;;12.07;5.03;;;-1.00;99.90;;;;;;4418322;28;657648;-72
2024/01/12 11:24:54;;;;;;;13.60;4.90;;;-1.00;99.90;;;;;;4417391;28;659346;-72
2024/01/12 11:27:42;;;;;;;15.67;6.23;;;-0.60;99.90;;;;;;4441418;28;657990;-72
2024/01/12 11:30:30;;;;;;;13.17;5.27;;;-0.50;99.90;;;;;;4422861;28;659526;-72
2024/01/12 11:33:18;;;;;;;10.93;3.80;;;-0.70;99.90;;;;;;4435727;28;658013;-72
2024/01/12 11:36:09;;;;;;;12.60;4.33;;;-0.70;99.90;;;;;;4441241;28;658100;-72
2024/01/12 11:38:59;;;;;;;4.47;2.38;;;-0.90;99.90;;;;;;4414348;28;658361;-72
2024/01/12 11:41:46;;;;;;;11.33;4.47;;;-0.50;99.90;;;;;;4422961;28;657309;-72
2024/01/12 11:44:35;;;;;;;12.77;5.23;;;-0.20;99.90;;;;;;4418897;28;658107;-72
2024/01/12 11:47:22;;;;;;;14.93;4.97;;;-0.30;99.90;;;;;;4446082;28;657275;-72
2024/01/12 11:50:11;;;;;;;11.13;3.13;;;0.30;99.90;;;;;;4423088;28;660153;-72
2024/01/12 11:53:01;;;;;;;12.60;5.73;;;0.20;99.90;;;;;;4416267;28;657090;-73
2024/01/12 11:55:48;;;;;;;13.90;5.10;;;-0.20;99.90;;;;;;4418272;28;656307;-72
2024/01/12 11:58:37;;;;;;;15.73;5.20;;;-0.50;99.90;;;;;;4439740;28;657710;-72
2024/01/12 12:01:25;;;;;;;17.97;6.13;;;0.00;99.90;;;;;;4419620;28;658047;-73
2024/01/12 12:04:12;;;;;;;10.73;2.73;;;0.50;99.90;;;;;;4439409;28;656287;-72
2024/01/12 12:07:00;;;;;;;14.13;6.43;;;0.60;99.90;;;;;;4441988;28;657395;-73
2024/01/12 12:09:48;;;;;;;15.17;4.93;;;0.60;99.90;;;;;;4444946;28;656227;-72
2024/01/12 12:12:36;;;;;;;16.50;5.63;;;0.70;99.90;;;;;;4425030;28;657109;-73
2024/01/12 12:15:24;;;;;;;6.37;2.77;;;1.40;99.90;;;;;;4426712;28;656796;-73
2024/01/12 12:18:11;;;;;;;13.30;5.57;;;1.40;99.90;;;;;;4450458;28;655671;-73
2024/01/12 12:20:59;;;;;;;13.67;5.73;;;1.40;99.90;;;;;;4424248;28;656907;-72
2024/01/12 12:23:46;;;;;;;20.20;6.03;;;1.20;99.90;;;;;;4443091;28;656932;-73
2024/01/12 12:26:35;;;;;;;16.17;5.20;;;1.70;99.90;;;;;;4423684;28;656561;-71
2024/01/12 12:29:22;;;;;;;17.20;5.80;;;1.50;99.90;;;;;;4429749;28;656365;-73
2024/01/12 12:32:11;;;;;;;20.03;7.13;;;1.10;99.90;;;;;;4445099;28;657538;-73
2024/01/12 12:34:58;;;;;;;18.50;6.23;;;0.70;99.90;;;;;;4422607;28;656571;-73
2024/01/12 12:37:46;;;;;;;17.03;6.10;;;1.10;99.90;;;;;;4441946;28;656541;-73
2024/01/12 12:40:34;;;;;;;15.77;5.67;;;0.20;99.90;;;;;;4423333;28;656317;-72
2024/01/12 12:43:22;;;;;;;15.17;5.20;;;-0.20;99.90;;;;;;4445131;28;656345;-72
2024/01/12 12:46:09;;;;;;;16.83;7.07;;;0.00;99.90;;;;;;4417944;28;658675;-73
2024/01/12 12:48:57;;;;;;;3.17;1.47;;;-0.20;99.90;;;;;;4439850;28;656989;-73
2024/01/12 12:51:44;;;;;;;22.37;7.07;;;-0.20;99.90;;;;;;4423815;28;657044;-73
2024/01/12 12:54:31;;;;;;;16.93;6.17;;;-0.60;99.90;;;;;;4439658;28;657757;-73
2024/01/12 12:57:18;;;;;;;16.67;7.00;;;-0.10;99.90;;;;;;4418113;28;657578;-72
2024/01/12 13:00:09;;;;;;;14.67;5.83;;;-0.20;99.90;;;;;;4441551;28;657561;-72
2024/01/12 13:02:57;;;;;;;15.23;5.50;;;-0.30;99.90;;;;;;4418470;28;658085;-73
2024/01/12 13:05:44;;;;;;;19.13;6.80;;;-0.40;99.90;;;;;;4420626;28;658397;-72
2024/01/12 13:08:31;;;;;;;13.80;5.15;;;-0.70;99.90;;;;;;4428919;28;658461;-72
2024/01/12 13:11:19;;;;;;;13.13;5.73;;;-0.80;99.90;;;;;;4418551;28;657656;-73
2024/01/12 13:14:07;;;;;;;15.17;5.57;;;-1.00;99.90;;;;;;4437518;28;657907;-72
2024/01/12 13:16:56;;;;;;;10.37;2.87;;;-0.90;99.90;;;;;;4419465;28;658244;-72
2024/01/12 13:19:43;;;;;;;18.03;6.87;;;-0.90;99.90;;;;;;4415385;28;657964;-72
2024/01/12 13:22:30;;;;;;;19.20;7.33;;;-0.90;99.90;;;;;;4440519;28;658637;-72
2024/01/12 13:25:18;;;;;;;16.27;5.40;;;-1.30;99.90;;;;;;4423567;28;658083;-72
2024/01/12 13:28:05;;;;;;;20.70;6.20;;;-1.40;99.90;;;;;;4436816;28;658248;-72
2024/01/12 13:30:52;;;;;;;18.80;6.80;;;-1.20;99.90;;;;;;4421888;28;658084;-72
2024/01/12 13:33:41;;;;;;;7.47;3.53;;;-1.10;99.90;;;;;;4438458;28;658624;-72
2024/01/12 13:36:28;;;;;;;18.03;5.30;;;-1.30;99.90;;;;;;4426282;28;656933;-72
2024/01/12 13:39:16;;;;;;;18.27;6.90;;;-1.40;99.90;;;;;;4442235;28;658316;-72
2024/01/12 13:42:03;;;;;;;20.10;7.33;;;-1.50;99.90;;;;;;4417507;28;657563;-72
2024/01/12 13:44:50;;;;;;;18.10;6.47;;;-1.50;99.90;;;;;;4441593;28;659120;-73
2024/01/12 13:47:38;;;;;;;19.13;7.80;;;-1.60;99.90;;;;;;4429132;28;657542;-72
2024/01/12 13:50:26;;;;;;;19.97;8.30;;;-1.50;99.90;;;;;;4440118;28;658628;-72
2024/01/12 13:53:14;;;;;;;15.80;6.77;;;-1.60;99.90;;;;;;4423709;28;658423;-73
2024/01/12 13:56:03;;;;;;;25.95;10.95;;;-1.60;99.90;;;;;;4436238;28;658107;-72
2024/01/12 13:58:50;;;;;;;26.63;9.67;;;-1.70;99.90;;;;;;4416312;28;659748;-72
2024/01/12 14:01:37;;;;;;;26.80;9.40;;;-1.80;99.90;;;;;;4433341;28;657377;-72
2024/01/12 14:04:25;;;;;;;24.27;9.70;;;-1.80;99.90;;;;;;4437691;28;658467;-72
2024/01/12 14:07:13;;;;;;;25.53;9.57;;;-1.80;99.90;;;;;;4436761;28;657685;-72